createdAt,value
2023-02-18T00:04:55.429Z,100132.06
2023-02-18T00:09:57.154Z,100136.16
2023-02-18T00:14:59.022Z,100130.53
2023-02-18T00:20:00.878Z,100126.81
2023-02-18T00:25:02.650Z,100120.56
2023-02-18T00:30:04.978Z,100122.13
2023-02-18T00:35:09.036Z,100131.94
2023-02-18T00:40:11.097Z,100136.16
2023-02-18T00:45:12.779Z,100135.97
2023-02-18T00:50:14.450Z,100126.88
2023-02-18T00:55:16.320Z,100135.31
2023-02-18T01:00:18.294Z,100136.75
2023-02-18T01:05:21.149Z,100124.25
2023-02-18T01:10:23.034Z,100141.81
2023-02-18T01:15:25.311Z,100137.88
2023-02-18T01:20:27.188Z,100149.53
2023-02-18T01:25:29.115Z,100155.88
2023-02-18T01:30:31.009Z,100146.00
2023-02-18T01:35:33.228Z,100132.31
2023-02-18T01:40:35.445Z,100142.47
2023-02-18T01:45:47.942Z,100134.78
2023-02-18T01:50:57.022Z,100133.25
2023-02-18T01:56:01.476Z,100133.41
2023-02-18T02:01:03.807Z,100133.28
2023-02-18T02:06:15.094Z,100127.88
2023-02-18T02:11:25.961Z,100137.44
2023-02-18T02:16:42.569Z,100153.47
2023-02-18T02:22:21.308Z,100155.06
2023-02-18T02:27:29.716Z,100142.84
2023-02-18T02:32:55.922Z,100137.59
2023-02-18T02:38:07.235Z,100135.13
2023-02-18T02:43:18.113Z,100145.72
2023-02-18T02:48:38.302Z,100149.44
2023-02-18T02:53:42.637Z,100149.44
2023-02-18T02:58:55.425Z,100140.56
2023-02-18T03:04:10.107Z,100137.81
2023-02-18T03:09:40.119Z,100139.53
2023-02-18T03:14:58.527Z,100150.00
2023-02-18T03:20:06.348Z,100150.19
2023-02-18T03:25:08.897Z,100152.91
2023-02-18T03:30:17.975Z,100143.13
2023-02-18T03:35:20.351Z,100145.47
2023-02-18T03:40:22.550Z,100150.28
2023-02-18T03:45:25.470Z,100143.19
2023-02-18T03:50:27.221Z,100139.88
2023-02-18T03:55:29.066Z,100139.16
2023-02-18T04:00:30.695Z,100133.63
2023-02-18T04:05:32.344Z,100144.38
2023-02-18T04:10:34.021Z,100147.91
2023-02-18T04:15:35.727Z,100144.47
2023-02-18T04:20:37.532Z,100147.84
2023-02-18T04:25:39.210Z,100148.09
2023-02-18T04:30:41.512Z,100142.97
2023-02-18T04:35:43.266Z,100146.00
2023-02-18T04:40:45.020Z,100130.31
2023-02-18T04:45:46.742Z,100135.03
2023-02-18T04:50:49.243Z,100135.97
2023-02-18T04:55:52.341Z,100141.47
2023-02-18T05:00:54.116Z,100137.34
2023-02-18T05:05:55.987Z,100139.09
2023-02-18T05:10:57.627Z,100141.72
2023-02-18T05:15:59.382Z,100141.81
2023-02-18T05:21:01.041Z,100126.53
2023-02-18T05:26:02.856Z,100118.63
2023-02-18T05:31:04.809Z,100114.44
2023-02-18T05:36:07.163Z,100108.78
2023-02-18T05:41:08.972Z,100100.53
2023-02-18T05:46:10.959Z,100096.91
2023-02-18T05:51:12.816Z,100085.59
2023-02-18T05:56:14.459Z,100084.97
2023-02-18T06:01:16.404Z,100087.75
2023-02-18T06:06:18.150Z,100074.41
2023-02-18T06:11:19.830Z,100079.53
2023-02-18T06:16:21.610Z,100084.69
2023-02-18T06:21:24.082Z,100078.34
2023-02-18T06:26:25.988Z,100078.31
2023-02-18T06:31:27.930Z,100073.16
2023-02-18T06:36:29.594Z,100076.94
2023-02-18T06:41:31.789Z,100074.78
2023-02-18T06:46:33.498Z,100070.66
2023-02-18T06:51:35.195Z,100062.03
2023-02-18T06:56:37.013Z,100062.25
2023-02-18T07:01:38.610Z,100065.75
2023-02-18T07:06:40.290Z,100058.00
2023-02-18T07:11:41.981Z,100055.72
2023-02-18T07:16:43.790Z,100047.97
2023-02-18T07:21:45.655Z,100034.81
2023-02-18T07:26:47.337Z,100036.06
2023-02-18T07:31:49.139Z,100020.22
2023-02-18T07:36:50.834Z,100005.94
2023-02-18T07:41:52.468Z,100010.28
2023-02-18T07:46:54.251Z,100001.28
2023-02-18T07:51:56.239Z,100009.41
2023-02-18T07:56:57.914Z,99987.97
2023-02-18T08:01:59.628Z,99987.34
2023-02-18T08:07:01.574Z,99975.44
2023-02-18T08:12:03.259Z,99974.25
2023-02-18T08:17:04.945Z,99961.69
2023-02-18T08:22:06.856Z,99955.38
2023-02-18T08:27:08.742Z,99954.78
2023-02-18T08:32:10.582Z,99935.53
2023-02-18T08:37:12.541Z,99921.78
2023-02-18T08:42:14.239Z,99911.38
2023-02-18T08:48:16.258Z,99907.47
2023-02-18T08:52:37.793Z,99906.44
2023-02-18T08:57:39.565Z,99889.78
2023-02-18T09:02:41.251Z,99884.41
2023-02-18T09:07:43.241Z,99876.09
2023-02-18T09:12:44.979Z,99866.81
2023-02-18T09:17:46.714Z,99848.78
2023-02-18T09:22:48.522Z,99853.31
2023-02-18T09:27:50.350Z,99843.06
2023-02-18T09:32:52.003Z,99825.97
2023-02-18T09:37:53.779Z,99811.88
2023-02-18T09:42:57.489Z,99803.78
2023-02-18T09:48:02.055Z,99802.97
2023-02-18T09:53:04.400Z,99790.44
2023-02-18T09:58:19.687Z,99778.84
2023-02-18T10:03:24.268Z,99770.41
2023-02-18T10:08:34.304Z,99756.69
2023-02-18T10:13:36.124Z,99746.72
2023-02-18T10:18:51.116Z,99750.72
2023-02-18T10:24:25.638Z,99730.50
2023-02-18T10:29:30.907Z,99731.88
2023-02-18T10:34:43.252Z,99715.59
2023-02-18T10:40:11.069Z,99720.13
2023-02-18T10:46:12.582Z,99718.66
2023-02-18T10:51:30.414Z,99695.78
2023-02-18T10:56:34.387Z,99687.44
2023-02-18T11:01:36.391Z,99679.69
2023-02-18T11:06:47.023Z,99657.44
2023-02-18T11:11:53.675Z,99653.03
2023-02-18T11:17:27.484Z,99624.34
2023-02-18T11:22:33.146Z,99608.75
2023-02-18T11:27:43.870Z,99610.16
2023-02-18T11:32:48.622Z,99617.00
2023-02-18T11:37:52.086Z,99590.34
2023-02-18T11:43:07.519Z,99595.34
2023-02-18T11:48:23.703Z,99589.16
2023-02-18T11:53:37.792Z,99577.38
2023-02-18T11:58:44.486Z,99578.38
2023-02-18T12:04:16.836Z,99576.06
2023-02-18T12:09:18.482Z,99563.22
2023-02-18T12:14:23.060Z,99569.56
2023-02-18T12:19:25.017Z,99571.38
2023-02-18T12:24:37.160Z,99561.44
2023-02-18T12:30:03.627Z,99559.78
2023-02-18T12:35:05.320Z,99558.03
2023-02-18T12:40:25.467Z,99559.53
2023-02-18T12:45:54.841Z,99562.41
2023-02-18T12:51:13.258Z,99558.56
2023-02-18T12:56:20.976Z,99554.69
2023-02-18T13:01:33.854Z,99553.34
2023-02-18T13:07:01.431Z,99551.38
2023-02-18T13:12:28.937Z,99560.91
2023-02-18T13:17:37.029Z,99538.94
2023-02-18T13:22:39.320Z,99531.06
2023-02-18T13:27:49.368Z,99537.97
2023-02-18T13:33:28.515Z,99542.19
2023-02-18T13:38:52.309Z,99541.09
2023-02-18T13:43:54.554Z,99538.94
2023-02-18T13:49:12.045Z,99542.72
2023-02-18T13:54:30.225Z,99542.38
2023-02-18T13:59:40.156Z,99557.03
2023-02-18T14:04:44.684Z,99550.53
2023-02-18T14:09:46.941Z,99535.09
2023-02-18T14:14:48.697Z,99545.00
2023-02-18T14:20:19.613Z,99549.16
2023-02-18T14:25:21.990Z,99567.78
2023-02-18T14:30:23.888Z,99553.84
2023-02-18T14:35:48.983Z,99551.44
2023-02-18T14:41:02.547Z,99561.72
2023-02-18T14:46:08.337Z,99573.75
2023-02-18T14:51:14.733Z,99585.84
2023-02-18T14:56:19.889Z,99577.81
2023-02-18T15:01:25.177Z,99597.53
2023-02-18T15:06:33.280Z,99601.34
2023-02-18T15:11:39.444Z,99610.22
2023-02-18T15:16:41.247Z,99603.94
2023-02-18T15:21:45.881Z,99591.28
2023-02-18T15:26:51.960Z,99592.03
2023-02-18T15:32:00.872Z,99608.41
2023-02-18T15:37:06.659Z,99616.34
2023-02-18T15:42:23.872Z,99611.28
2023-02-18T15:47:26.084Z,99623.13
2023-02-18T15:52:34.071Z,99615.94
2023-02-18T15:57:37.400Z,99622.78
2023-02-18T16:02:52.797Z,99618.06
2023-02-18T16:08:00.957Z,99611.19
2023-02-18T16:13:04.890Z,99622.97
2023-02-18T16:18:07.427Z,99617.13
2023-02-18T16:23:14.650Z,99644.81
2023-02-18T16:28:28.007Z,99656.59
2023-02-18T16:33:29.706Z,99661.84
2023-02-18T16:38:32.416Z,99662.94
2023-02-18T16:43:34.280Z,99652.63
2023-02-18T16:48:40.250Z,99664.63
2023-02-18T16:53:42.830Z,99666.28
2023-02-18T16:58:48.086Z,99684.31
2023-02-18T17:03:50.909Z,99675.63
2023-02-18T17:08:53.061Z,99684.25
2023-02-18T17:13:55.606Z,99681.25
2023-02-18T17:18:59.057Z,99699.69
2023-02-18T17:24:02.171Z,99717.00
2023-02-18T17:29:05.586Z,99706.19
2023-02-18T17:34:09.923Z,99727.81
2023-02-18T17:39:17.773Z,99713.44
2023-02-18T17:44:22.627Z,99728.44
2023-02-18T17:49:24.509Z,99733.84
2023-02-18T17:54:28.205Z,99749.34
2023-02-18T17:59:30.596Z,99748.41
2023-02-18T18:04:32.937Z,99768.66
2023-02-18T18:09:34.633Z,99775.00
2023-02-18T18:14:36.590Z,99763.88
2023-02-18T18:19:39.036Z,99770.66
2023-02-18T18:24:40.987Z,99789.72
2023-02-18T18:29:43.030Z,99803.03
2023-02-18T18:34:48.994Z,99815.75
2023-02-18T18:39:50.989Z,99821.53
2023-02-18T18:44:52.890Z,99814.69
2023-02-18T18:49:54.610Z,99816.00
2023-02-18T18:54:56.608Z,99810.66
2023-02-18T18:59:58.369Z,99803.44
2023-02-18T19:05:00.583Z,99806.09
2023-02-18T19:10:02.907Z,99806.94
2023-02-18T19:15:04.929Z,99808.81
2023-02-18T19:20:07.004Z,99820.06
2023-02-18T19:25:08.853Z,99826.03
2023-02-18T19:30:25.278Z,99817.22
2023-02-18T19:35:28.511Z,99827.81
2023-02-18T19:40:32.402Z,99824.63
2023-02-18T19:45:35.368Z,99838.69
2023-02-18T19:50:37.552Z,99831.41
2023-02-18T19:55:42.267Z,99846.66
2023-02-18T20:00:44.667Z,99831.66
2023-02-18T20:05:47.243Z,99844.16
2023-02-18T20:10:59.638Z,99843.25
2023-02-18T20:16:01.792Z,99853.94
2023-02-18T20:21:03.825Z,99847.69
2023-02-18T20:26:14.592Z,99851.50
2023-02-18T20:31:16.959Z,99853.81
2023-02-18T20:36:19.266Z,99851.25
2023-02-18T20:41:22.433Z,99856.56
2023-02-18T20:46:24.876Z,99863.31
2023-02-18T20:51:26.961Z,99875.91
2023-02-18T20:56:29.000Z,99863.53
2023-02-18T21:01:31.152Z,99858.56
2023-02-18T21:06:33.045Z,99863.06
2023-02-18T21:11:35.100Z,99860.91
2023-02-18T21:16:39.981Z,99861.78
2023-02-18T21:21:46.854Z,99866.06
2023-02-18T21:26:48.777Z,99861.53
2023-02-18T21:31:50.626Z,99865.78
2023-02-18T21:36:52.312Z,99875.44
2023-02-18T21:41:54.118Z,99876.00
2023-02-18T21:46:56.028Z,99881.66
2023-02-18T21:51:58.300Z,99861.66
2023-02-18T21:57:02.745Z,99847.72
2023-02-18T22:02:07.072Z,99857.38
2023-02-18T22:07:09.025Z,99855.75
2023-02-18T22:12:11.965Z,99849.59
2023-02-18T22:17:14.783Z,99860.69
2023-02-18T22:22:17.252Z,99857.06
2023-02-18T22:27:19.592Z,99860.09
2023-02-18T22:32:21.560Z,99860.81
2023-02-18T22:37:23.588Z,99869.09
2023-02-18T22:42:25.802Z,99859.00
2023-02-18T22:47:28.012Z,99873.50
2023-02-18T22:52:29.778Z,99867.09
2023-02-18T22:57:31.484Z,99871.53
2023-02-18T23:02:33.328Z,99860.50
2023-02-18T23:07:35.058Z,99860.19
2023-02-18T23:12:36.807Z,99872.31
2023-02-18T23:17:38.463Z,99875.66
2023-02-18T23:22:42.151Z,99866.94
2023-02-18T23:27:44.215Z,99864.19
2023-02-18T23:32:46.044Z,99860.84
2023-02-18T23:38:06.089Z,99863.00
2023-02-18T23:43:07.799Z,99857.06
2023-02-18T23:48:09.487Z,99851.13
2023-02-18T23:53:11.130Z,99850.09
2023-02-18T23:58:12.814Z,99844.97
